createdAt,value
2022-11-03T00:01:51.010Z,59.72
2022-11-03T00:06:55.915Z,59.63
2022-11-03T00:11:59.096Z,60.20
2022-11-03T00:17:02.318Z,60.08
2022-11-03T00:22:05.359Z,60.12
2022-11-03T00:27:08.268Z,60.14
2022-11-03T00:32:11.231Z,60.56
2022-11-03T00:37:14.284Z,60.54
2022-11-03T00:42:17.274Z,60.67
2022-11-03T00:47:23.312Z,60.63
2022-11-03T00:52:27.379Z,60.73
2022-11-03T00:57:30.329Z,60.61
2022-11-03T01:02:33.382Z,60.80
2022-11-03T01:07:36.451Z,60.79
2022-11-03T01:12:39.410Z,60.74
2022-11-03T01:17:42.340Z,60.74
2022-11-03T01:22:45.244Z,60.85
2022-11-03T01:27:48.152Z,61.07
2022-11-03T01:32:51.140Z,61.08
2022-11-03T01:37:56.612Z,60.88
2022-11-03T01:43:18.567Z,60.87
2022-11-03T01:48:23.015Z,60.98
2022-11-03T01:53:27.662Z,61.01
2022-11-03T01:58:37.440Z,61.10
2022-11-03T02:03:46.264Z,61.13
2022-11-03T02:09:00.555Z,61.08
2022-11-03T02:14:04.058Z,60.91
2022-11-03T02:19:14.933Z,61.34
2022-11-03T02:24:37.486Z,61.17
2022-11-03T02:29:40.492Z,61.34
2022-11-03T02:34:50.356Z,61.72
2022-11-03T02:40:15.244Z,61.47
2022-11-03T02:45:21.814Z,61.80
2022-11-03T02:50:29.593Z,61.89
2022-11-03T02:55:36.303Z,61.69
2022-11-03T03:00:49.894Z,61.79
2022-11-03T03:05:57.812Z,61.85
2022-11-03T03:11:03.390Z,61.78
2022-11-03T03:16:16.924Z,61.58
2022-11-03T03:21:25.487Z,61.40
2022-11-03T03:26:31.084Z,61.46
2022-11-03T03:31:38.538Z,61.46
2022-11-03T03:36:44.719Z,61.76
2022-11-03T03:41:48.589Z,62.06
2022-11-03T03:46:59.973Z,62.05
2022-11-03T03:52:04.035Z,62.28
2022-11-03T03:57:10.424Z,62.71
2022-11-03T04:02:14.084Z,62.53
2022-11-03T04:07:40.728Z,62.54
2022-11-03T04:13:05.395Z,62.66
2022-11-03T04:18:27.097Z,62.53
2022-11-03T04:23:30.261Z,62.33
2022-11-03T04:28:33.215Z,62.40
2022-11-03T04:33:36.165Z,62.05
2022-11-03T04:38:39.620Z,62.31
2022-11-03T04:43:43.036Z,62.46
2022-11-03T04:48:47.616Z,62.71
2022-11-03T04:53:54.415Z,62.24
2022-11-03T04:58:58.319Z,62.16
2022-11-03T05:04:01.344Z,62.04
2022-11-03T05:09:29.484Z,62.20
2022-11-03T05:14:33.042Z,62.06
2022-11-03T05:19:41.816Z,62.31
2022-11-03T05:24:45.104Z,62.37
2022-11-03T05:29:50.074Z,62.83
2022-11-03T05:35:02.582Z,63.12
2022-11-03T05:40:21.682Z,63.34
2022-11-03T05:45:31.086Z,63.02
2022-11-03T05:50:35.244Z,62.68
2022-11-03T05:55:38.235Z,62.82
2022-11-03T06:00:48.213Z,62.78
2022-11-03T06:05:53.528Z,62.83
2022-11-03T06:10:58.614Z,62.95
2022-11-03T06:16:26.636Z,63.04
2022-11-03T06:21:30.690Z,63.08
2022-11-03T06:26:33.596Z,63.23
2022-11-03T06:31:38.759Z,63.18
2022-11-03T06:36:41.879Z,63.07
2022-11-03T06:41:44.896Z,63.62
2022-11-03T06:46:47.833Z,63.53
2022-11-03T06:51:51.042Z,63.49
2022-11-03T06:56:54.222Z,63.38
2022-11-03T07:01:57.151Z,63.33
2022-11-03T07:07:03.177Z,63.72
2022-11-03T07:12:17.084Z,63.73
2022-11-03T07:17:22.698Z,63.97
2022-11-03T07:22:27.194Z,64.09
2022-11-03T07:27:35.619Z,64.36
2022-11-03T07:32:39.389Z,64.20
2022-11-03T07:37:42.514Z,64.10
2022-11-03T07:42:45.620Z,64.12
2022-11-03T07:47:48.484Z,64.25
2022-11-03T07:52:51.701Z,64.40
2022-11-03T07:57:54.599Z,64.24
2022-11-03T08:03:00.718Z,64.41
2022-11-03T08:08:04.591Z,64.41
2022-11-03T08:13:07.996Z,64.31
2022-11-03T08:18:11.246Z,63.86
2022-11-03T08:23:29.888Z,63.45
2022-11-03T08:28:33.859Z,63.15
2022-11-03T08:33:36.840Z,62.88
2022-11-03T08:38:39.807Z,61.93
2022-11-03T08:43:42.773Z,61.75
2022-11-03T08:48:46.709Z,61.74
2022-11-03T08:53:54.104Z,61.17
2022-11-03T08:58:57.081Z,61.03
2022-11-03T09:04:00.236Z,60.57
2022-11-03T09:14:26.256Z,60.09
2022-11-03T09:19:29.290Z,59.99
2022-11-03T09:24:32.462Z,59.70
2022-11-03T09:29:58.608Z,59.18
2022-11-03T09:34:58.275Z,59.03
2022-11-03T09:40:01.220Z,58.80
2022-11-03T09:45:05.578Z,58.43
2022-11-03T09:50:17.811Z,58.10
2022-11-03T09:55:27.626Z,57.85
2022-11-03T10:00:30.761Z,57.73
2022-11-03T10:05:34.038Z,57.25
2022-11-03T10:10:37.975Z,57.31
2022-11-03T10:15:42.261Z,57.14
2022-11-03T10:20:45.508Z,56.69
2022-11-03T10:25:48.735Z,56.37
2022-11-03T10:31:12.907Z,56.01
2022-11-03T10:36:16.380Z,55.98
2022-11-03T10:41:26.417Z,57.54
2022-11-03T10:46:50.068Z,57.19
2022-11-03T10:51:54.824Z,55.55
2022-11-03T10:56:58.343Z,55.32
2022-11-03T11:02:02.049Z,54.96
2022-11-03T11:07:18.293Z,54.96
2022-11-03T11:12:25.844Z,53.83
2022-11-03T11:17:37.913Z,54.55
2022-11-03T11:22:40.970Z,54.28
2022-11-03T11:27:43.814Z,52.88
2022-11-03T11:32:46.757Z,52.18
2022-11-03T11:37:49.692Z,51.95
2022-11-03T11:43:01.551Z,51.81
2022-11-03T11:48:19.080Z,52.51
2022-11-03T11:53:26.287Z,51.78
2022-11-03T11:58:43.952Z,50.89
2022-11-03T12:03:48.165Z,50.81
2022-11-03T12:08:51.164Z,49.64
2022-11-03T12:13:54.152Z,49.57
2022-11-03T12:18:58.722Z,49.40
2022-11-03T12:24:01.580Z,49.25
2022-11-03T12:29:11.882Z,48.93
2022-11-03T12:34:14.910Z,48.80
2022-11-03T12:39:17.849Z,48.35
2022-11-03T12:44:20.811Z,48.49
2022-11-03T12:49:23.905Z,48.34
2022-11-03T12:54:26.771Z,48.19
2022-11-03T12:59:29.955Z,48.00
2022-11-03T13:04:32.814Z,48.23
2022-11-03T13:09:36.114Z,48.29
2022-11-03T13:14:39.811Z,48.74
2022-11-03T13:19:44.979Z,48.63
2022-11-03T13:24:47.959Z,48.37
2022-11-03T13:29:50.940Z,47.40
2022-11-03T13:34:53.876Z,47.10
2022-11-03T13:39:56.769Z,47.06
2022-11-03T13:44:59.781Z,47.18
2022-11-03T13:50:19.321Z,47.31
2022-11-03T14:00:45.631Z,47.44
2022-11-03T14:05:48.576Z,47.45
2022-11-03T14:10:51.594Z,47.56
2022-11-03T14:15:56.708Z,47.63
2022-11-03T14:20:59.713Z,47.74
2022-11-03T14:26:21.215Z,47.72
2022-11-03T14:31:26.911Z,47.73
2022-11-03T14:36:29.859Z,47.77
2022-11-03T14:41:51.293Z,47.92
2022-11-03T14:46:54.264Z,47.99
2022-11-03T14:51:58.171Z,48.07
2022-11-03T14:57:02.035Z,48.20
2022-11-03T15:02:06.341Z,48.44
2022-11-03T15:07:09.452Z,48.63
2022-11-03T15:12:12.441Z,48.77
2022-11-03T15:17:15.333Z,48.96
2022-11-03T15:22:18.865Z,49.29
2022-11-03T15:27:22.363Z,49.23
2022-11-03T15:32:25.216Z,49.35
2022-11-03T15:37:28.118Z,49.62
2022-11-03T15:42:31.186Z,49.70
2022-11-03T15:47:34.302Z,49.76
2022-11-03T15:52:38.207Z,50.04
2022-11-03T15:57:41.188Z,50.25
2022-11-03T16:02:44.362Z,51.85
2022-11-03T16:07:47.518Z,51.67
2022-11-03T16:12:50.509Z,50.61
2022-11-03T16:17:53.528Z,50.52
2022-11-03T16:22:56.867Z,50.52
2022-11-03T16:27:59.772Z,50.49
2022-11-03T16:33:02.885Z,50.67
2022-11-03T16:38:08.163Z,50.90
2022-11-03T16:43:11.890Z,51.03
2022-11-03T16:48:14.952Z,51.32
2022-11-03T16:53:18.175Z,51.35
2022-11-03T16:58:21.110Z,51.16
2022-11-03T17:03:24.217Z,51.09
2022-11-03T17:08:53.791Z,51.14
2022-11-03T17:13:50.275Z,51.00
2022-11-03T17:18:53.250Z,50.92
2022-11-03T17:23:56.625Z,51.05
2022-11-03T17:28:59.666Z,51.18
2022-11-03T17:34:03.582Z,51.05
2022-11-03T17:39:06.613Z,51.28
2022-11-03T17:44:12.038Z,51.20
2022-11-03T17:49:14.981Z,51.24
2022-11-03T17:54:17.883Z,51.27
2022-11-03T17:59:21.487Z,51.40
2022-11-03T18:04:24.430Z,51.41
2022-11-03T18:09:27.407Z,51.66
2022-11-03T18:14:30.587Z,51.76
2022-11-03T18:19:34.556Z,51.89
2022-11-03T18:24:37.548Z,52.23
2022-11-03T18:29:40.586Z,52.29
2022-11-03T18:34:43.691Z,52.60
2022-11-03T18:39:46.637Z,53.06
2022-11-03T18:44:49.666Z,53.48
2022-11-03T18:49:52.569Z,53.04
2022-11-03T18:54:55.605Z,53.20
2022-11-03T18:59:58.672Z,53.50
2022-11-03T19:05:01.843Z,53.59
2022-11-03T19:10:06.991Z,53.61
2022-11-03T19:15:19.406Z,53.66
2022-11-03T19:20:25.599Z,53.98
2022-11-03T19:25:28.599Z,54.38
2022-11-03T19:30:32.124Z,54.44
2022-11-03T19:35:35.490Z,54.44
2022-11-03T19:40:39.664Z,54.62
2022-11-03T19:45:42.744Z,54.90
2022-11-03T19:50:46.195Z,54.83
2022-11-03T19:55:49.919Z,55.20
2022-11-03T20:00:53.715Z,55.28
2022-11-03T20:05:58.021Z,55.24
2022-11-03T20:11:01.263Z,55.23
2022-11-03T20:16:10.154Z,55.54
2022-11-03T20:21:16.944Z,55.69
2022-11-03T20:26:22.955Z,55.63
2022-11-03T20:31:25.885Z,55.73
2022-11-03T20:36:31.094Z,55.90
2022-11-03T20:41:34.620Z,56.01
2022-11-03T20:46:37.656Z,55.96
2022-11-03T20:51:43.608Z,56.28
2022-11-03T20:56:47.732Z,56.66
2022-11-03T21:01:52.157Z,56.18
2022-11-03T21:06:56.260Z,56.29
2022-11-03T21:12:02.229Z,56.49
2022-11-03T21:17:30.737Z,56.54
2022-11-03T21:22:53.716Z,56.98
2022-11-03T21:27:57.282Z,56.60
2022-11-03T21:33:00.307Z,56.94
2022-11-03T21:38:03.487Z,56.65
2022-11-03T21:43:32.171Z,56.81
2022-11-03T21:48:55.307Z,57.10
2022-11-03T21:53:58.392Z,57.04
2022-11-03T21:59:01.349Z,56.96
2022-11-03T22:04:04.632Z,57.06
2022-11-03T22:09:07.653Z,57.38
2022-11-03T22:14:14.546Z,57.32
2022-11-03T22:19:40.756Z,57.50
2022-11-03T22:25:02.833Z,57.48
2022-11-03T22:30:24.949Z,57.58
2022-11-03T22:35:46.143Z,57.47
2022-11-03T22:41:13.296Z,57.39
2022-11-03T22:46:21.081Z,57.64
2022-11-03T22:51:24.746Z,57.95
2022-11-03T22:56:30.244Z,57.85
2022-11-03T23:01:34.027Z,57.80
2022-11-03T23:06:40.521Z,57.99
2022-11-03T23:11:43.707Z,58.06
2022-11-03T23:16:46.650Z,57.95
2022-11-03T23:21:52.318Z,58.03
2022-11-03T23:26:55.457Z,58.11
2022-11-03T23:31:59.677Z,58.17
2022-11-03T23:37:02.994Z,58.16
2022-11-03T23:42:06.105Z,58.03
2022-11-03T23:47:27.937Z,58.07
2022-11-03T23:52:30.873Z,58.15
2022-11-03T23:57:52.079Z,58.21
